Time;durP1;ratioP1;P1;durP2;ratioP2;P2;SDS_P1;SDS_P2;PMS_P1;PMS_P2;Temp;Humidity;BMP_temperature;BMP_pressure;BME280_temperature;BME280_humidity;BME280_pressure;Samples;Min_cycle;Max_cycle;Signal;HPM_P1;HPM_P2
2021/05/02 00:02:16;;;;;;;30.15;27.98;;;;;;;;;;5077011;28;20455;-96
2021/05/02 00:04:43;;;;;;;31.25;28.75;;;;;;;;;;5059005;28;20199;-96
2021/05/02 00:07:10;;;;;;;31.05;28.63;;;;;;;;;;5076964;28;20201;-95
2021/05/02 00:09:37;;;;;;;29.88;27.77;;;;;;;;;;5077158;28;20202;-95
2021/05/02 00:12:04;;;;;;;29.67;27.48;;;;;;;;;;5076658;28;20202;-95
2021/05/02 00:14:31;;;;;;;30.15;27.77;;;;;;;;;;5059218;28;20205;-96
2021/05/02 00:16:58;;;;;;;29.35;27.25;;;;;;;;;;5059212;28;20197;-96
2021/05/02 00:19:26;;;;;;;30.93;28.63;;;;;;;;;;5076840;28;20191;-95
2021/05/02 00:21:54;;;;;;;29.75;27.60;;;;;;;;;;5075833;28;20575;-96
2021/05/02 00:24:22;;;;;;;33.63;30.92;;;;;;;;;;5076694;28;20184;-96
2021/05/02 00:26:49;;;;;;;31.43;29.13;;;;;;;;;;5076577;28;20199;-96
2021/05/02 00:29:16;;;;;;;31.70;29.30;;;;;;;;;;5076413;28;20962;-96
2021/05/02 00:31:44;;;;;;;32.17;29.77;;;;;;;;;;5076647;28;20913;-96
2021/05/02 00:34:11;;;;;;;31.40;29.00;;;;;;;;;;5076639;28;20195;-96
2021/05/02 00:36:40;;;;;;;31.37;28.97;;;;;;;;;;5076513;28;20426;-96
2021/05/02 00:39:07;;;;;;;31.63;28.92;;;;;;;;;;5075985;28;20487;-96
2021/05/02 00:41:35;;;;;;;29.33;27.17;;;;;;;;;;5075892;28;20229;-96
2021/05/02 00:44:04;;;;;;;31.40;29.20;;;;;;;;;;5076003;28;20199;-96
2021/05/02 00:46:35;;;;;;;31.70;29.40;;;;;;;;;;5076074;28;20196;-96
2021/05/02 00:49:04;;;;;;;32.83;30.35;;;;;;;;;;5076318;28;20595;-96
2021/05/02 00:51:32;;;;;;;31.57;28.97;;;;;;;;;;5076215;28;20566;-96
2021/05/02 00:54:15;;;;;;;31.70;29.13;;;;;;;;;;5076367;28;20473;-95
2021/05/02 00:56:47;;;;;;;30.08;28.00;;;;;;;;;;5075865;28;20658;-95
2021/05/02 00:59:20;;;;;;;31.73;29.35;;;;;;;;;;5076117;28;20191;-95
2021/05/02 01:01:52;;;;;;;31.50;29.10;;;;;;;;;;5075851;28;20233;-96
2021/05/02 01:04:20;;;;;;;30.88;28.35;;;;;;;;;;5076148;28;20224;-96
2021/05/02 01:06:50;;;;;;;30.15;28.05;;;;;;;;;;5076106;28;20191;-95
2021/05/02 01:09:18;;;;;;;29.83;27.77;;;;;;;;;;5076214;28;20609;-95
2021/05/02 01:11:47;;;;;;;30.13;28.10;;;;;;;;;;5075968;28;20199;-96
2021/05/02 01:14:18;;;;;;;32.42;29.92;;;;;;;;;;5075820;28;20249;-96
2021/05/02 01:16:46;;;;;;;31.35;28.95;;;;;;;;;;5076060;28;20237;-95
2021/05/02 01:19:13;;;;;;;31.60;29.40;;;;;;;;;;5075385;28;20298;-95
2021/05/02 01:21:41;;;;;;;29.70;27.60;;;;;;;;;;5074770;28;20469;-96
2021/05/02 01:24:10;;;;;;;30.07;28.07;;;;;;;;;;5075514;28;20407;-96
2021/05/02 01:26:40;;;;;;;31.60;29.40;;;;;;;;;;5058873;28;20431;-96
2021/05/02 01:29:07;;;;;;;32.00;29.33;;;;;;;;;;5075480;28;20418;-96
2021/05/02 01:31:34;;;;;;;30.97;28.67;;;;;;;;;;5057195;28;20471;-96
2021/05/02 01:34:01;;;;;;;31.63;29.33;;;;;;;;;;5075148;28;20456;-96
2021/05/02 01:36:28;;;;;;;31.13;28.75;;;;;;;;;;5075360;28;20195;-96
2021/05/02 01:38:56;;;;;;;30.33;28.10;;;;;;;;;;5075007;28;20234;-95
2021/05/02 01:41:25;;;;;;;29.95;27.75;;;;;;;;;;5075257;28;20492;-95
2021/05/02 01:43:52;;;;;;;31.00;28.70;;;;;;;;;;5057453;28;20202;-95
2021/05/02 01:46:22;;;;;;;31.20;28.90;;;;;;;;;;5075176;28;20221;-96
2021/05/02 01:48:50;;;;;;;31.20;28.90;;;;;;;;;;5075077;28;20201;-96
2021/05/02 01:51:20;;;;;;;30.75;28.50;;;;;;;;;;5075020;28;20190;-95
2021/05/02 01:53:47;;;;;;;30.13;27.83;;;;;;;;;;5074969;28;20249;-95
2021/05/02 01:56:15;;;;;;;31.50;29.13;;;;;;;;;;5074999;28;20199;-95
2021/05/02 01:58:43;;;;;;;30.95;28.83;;;;;;;;;;5074597;28;20285;-96
2021/05/02 02:01:12;;;;;;;29.20;27.20;;;;;;;;;;5074863;28;20226;-95
2021/05/02 02:03:39;;;;;;;30.52;28.23;;;;;;;;;;5074979;28;20192;-96
2021/05/02 02:06:06;;;;;;;31.13;28.73;;;;;;;;;;5074864;28;20186;-95
2021/05/02 02:08:34;;;;;;;30.25;27.95;;;;;;;;;;5074908;28;20189;-96
2021/05/02 02:11:01;;;;;;;31.35;29.05;;;;;;;;;;5074497;28;20193;-93
2021/05/02 02:13:28;;;;;;;31.88;29.58;;;;;;;;;;5074359;28;20726;-93
2021/05/02 02:15:56;;;;;;;33.78;31.15;;;;;;;;;;5074436;28;20191;-94
2021/05/02 02:18:23;;;;;;;31.02;28.80;;;;;;;;;;5074606;28;20186;-93
2021/05/02 02:20:52;;;;;;;32.17;29.73;;;;;;;;;;5074578;28;20240;-94
2021/05/02 02:23:20;;;;;;;31.70;29.13;;;;;;;;;;5074656;28;20280;-93
2021/05/02 02:25:48;;;;;;;32.53;30.02;;;;;;;;;;5074769;28;20203;-93
2021/05/02 02:28:15;;;;;;;31.33;29.05;;;;;;;;;;5074505;28;20200;-93
2021/05/02 02:30:44;;;;;;;31.58;29.15;;;;;;;;;;5074511;28;20286;-93
2021/05/02 02:33:13;;;;;;;32.75;30.35;;;;;;;;;;5056587;28;20299;-93
2021/05/02 02:35:41;;;;;;;32.58;29.98;;;;;;;;;;5056993;28;20273;-93
2021/05/02 02:38:09;;;;;;;32.38;29.77;;;;;;;;;;5074089;28;20225;-93
2021/05/02 02:40:36;;;;;;;31.85;29.40;;;;;;;;;;5074016;28;20227;-93
2021/05/02 02:43:04;;;;;;;31.50;29.02;;;;;;;;;;5074404;28;20233;-93
2021/05/02 02:45:33;;;;;;;31.77;29.38;;;;;;;;;;5073708;28;20186;-93
2021/05/02 02:48:02;;;;;;;31.35;28.95;;;;;;;;;;5074450;28;20194;-93
2021/05/02 02:50:30;;;;;;;31.45;29.05;;;;;;;;;;5074514;28;20194;-93
2021/05/02 02:52:58;;;;;;;31.73;29.23;;;;;;;;;;5074087;28;20678;-94
2021/05/02 02:55:26;;;;;;;32.97;30.35;;;;;;;;;;5074352;28;20190;-93
2021/05/02 02:57:56;;;;;;;32.72;30.23;;;;;;;;;;5073875;28;20202;-93
2021/05/02 03:00:24;;;;;;;32.03;29.52;;;;;;;;;;5074322;28;20186;-93
2021/05/02 03:02:51;;;;;;;34.40;31.65;;;;;;;;;;5073998;28;20217;-92
2021/05/02 03:05:21;;;;;;;31.83;29.33;;;;;;;;;;5056412;28;20263;-93
2021/05/02 03:07:50;;;;;;;33.55;30.75;;;;;;;;;;5073673;28;20208;-94
2021/05/02 03:10:18;;;;;;;33.10;30.50;;;;;;;;;;5074165;28;20323;-93
2021/05/02 03:12:45;;;;;;;33.33;30.45;;;;;;;;;;5077233;28;20199;-92
2021/05/02 03:15:12;;;;;;;34.67;31.95;;;;;;;;;;5056709;28;20209;-93
2021/05/02 03:17:42;;;;;;;34.22;31.27;;;;;;;;;;5073636;28;20190;-94
2021/05/02 03:20:12;;;;;;;33.90;30.88;;;;;;;;;;5073895;28;20193;-93
2021/05/02 03:22:43;;;;;;;33.25;30.75;;;;;;;;;;5073725;28;20215;-92
2021/05/02 03:25:12;;;;;;;34.83;32.03;;;;;;;;;;5073908;28;20197;-93
2021/05/02 03:27:44;;;;;;;34.28;31.67;;;;;;;;;;5073970;28;20186;-93
2021/05/02 03:30:12;;;;;;;33.20;30.58;;;;;;;;;;5073934;28;20222;-93
2021/05/02 03:32:44;;;;;;;34.63;31.88;;;;;;;;;;5073714;28;20204;-94
2021/05/02 03:35:12;;;;;;;35.92;32.85;;;;;;;;;;5073639;28;20737;-93
2021/05/02 03:37:39;;;;;;;34.35;31.60;;;;;;;;;;5073606;28;20232;-93
2021/05/02 03:40:07;;;;;;;34.15;31.30;;;;;;;;;;5073880;28;20635;-94
2021/05/02 03:42:35;;;;;;;36.10;33.13;;;;;;;;;;5073241;28;20237;-93
2021/05/02 03:45:02;;;;;;;36.55;33.42;;;;;;;;;;5073594;28;20198;-93
2021/05/02 03:47:29;;;;;;;35.00;32.20;;;;;;;;;;5073749;28;20187;-93
2021/05/02 03:49:56;;;;;;;37.35;34.25;;;;;;;;;;5073331;28;20186;-93
2021/05/02 03:52:23;;;;;;;38.47;34.97;;;;;;;;;;5073434;28;20189;-93
2021/05/02 03:54:51;;;;;;;37.20;33.80;;;;;;;;;;5073716;28;20192;-93
2021/05/02 03:57:18;;;;;;;37.53;34.50;;;;;;;;;;5076303;28;20218;-93
2021/05/02 03:59:46;;;;;;;36.90;33.80;;;;;;;;;;5076811;28;20486;-93
2021/05/02 04:02:15;;;;;;;34.63;31.60;;;;;;;;;;5077322;28;20221;-93
2021/05/02 04:04:42;;;;;;;37.58;34.28;;;;;;;;;;5077148;28;20423;-93
2021/05/02 04:07:10;;;;;;;37.97;34.60;;;;;;;;;;5077155;28;20570;-93
2021/05/02 04:09:37;;;;;;;38.90;35.53;;;;;;;;;;5077231;28;20451;-92
2021/05/02 04:12:04;;;;;;;38.28;34.53;;;;;;;;;;5076601;28;20209;-93
2021/05/02 04:14:31;;;;;;;37.08;33.83;;;;;;;;;;5077008;28;20198;-93
2021/05/02 04:17:00;;;;;;;37.75;34.35;;;;;;;;;;5076566;28;20199;-93
2021/05/02 04:19:28;;;;;;;38.05;34.85;;;;;;;;;;5076541;28;20205;-93
2021/05/02 04:21:55;;;;;;;39.60;35.90;;;;;;;;;;5076967;28;20218;-93
2021/05/02 04:24:22;;;;;;;39.78;36.22;;;;;;;;;;5077243;28;20194;-92
2021/05/02 04:26:49;;;;;;;38.67;34.97;;;;;;;;;;5076409;28;20192;-93
2021/05/02 04:29:16;;;;;;;38.80;35.22;;;;;;;;;;5076271;28;20190;-93
2021/05/02 04:31:43;;;;;;;37.30;34.15;;;;;;;;;;5076506;28;20555;-94
2021/05/02 04:34:11;;;;;;;38.38;35.13;;;;;;;;;;5076470;28;20558;-93
2021/05/02 04:36:38;;;;;;;39.63;36.20;;;;;;;;;;5076391;28;20194;-93
2021/05/02 04:39:05;;;;;;;40.28;36.58;;;;;;;;;;5076095;28;20489;-93
2021/05/02 04:41:33;;;;;;;35.73;32.60;;;;;;;;;;5076208;28;20234;-93
2021/05/02 04:43:59;;;;;;;35.85;32.45;;;;;;;;;;5076587;28;20412;-93
2021/05/02 04:46:27;;;;;;;36.75;33.55;;;;;;;;;;5059111;28;20202;-93
2021/05/02 04:48:54;;;;;;;34.33;30.98;;;;;;;;;;5075854;28;20186;-93
2021/05/02 04:51:22;;;;;;;34.88;32.00;;;;;;;;;;5076164;28;20222;-94
2021/05/02 04:53:49;;;;;;;34.67;31.67;;;;;;;;;;5076157;28;20273;-93
2021/05/02 04:56:17;;;;;;;33.25;30.55;;;;;;;;;;5075899;28;21066;-92
2021/05/02 04:58:43;;;;;;;32.00;29.20;;;;;;;;;;5076550;28;20189;-96
2021/05/02 05:01:12;;;;;;;32.75;30.05;;;;;;;;;;5076600;28;20606;-96
2021/05/02 05:03:39;;;;;;;30.83;28.10;;;;;;;;;;5076400;28;20194;-93
2021/05/02 05:06:06;;;;;;;33.28;30.40;;;;;;;;;;5058162;28;20709;-93
2021/05/02 05:08:34;;;;;;;31.33;28.70;;;;;;;;;;5075819;28;20187;-93
2021/05/02 05:11:01;;;;;;;31.65;29.05;;;;;;;;;;5057949;28;20190;-92
2021/05/02 05:13:28;;;;;;;32.05;29.20;;;;;;;;;;5058042;28;20648;-92
2021/05/02 05:15:58;;;;;;;32.00;29.40;;;;;;;;;;5075539;28;20210;-92
2021/05/02 05:18:25;;;;;;;32.38;29.35;;;;;;;;;;5075454;28;20243;-93
2021/05/02 05:20:52;;;;;;;30.15;27.58;;;;;;;;;;5075280;28;20204;-91
2021/05/02 05:23:20;;;;;;;30.42;27.92;;;;;;;;;;5057729;28;20272;-92
2021/05/02 05:25:47;;;;;;;29.60;27.20;;;;;;;;;;5075390;28;20713;-92
2021/05/02 05:28:15;;;;;;;31.73;29.10;;;;;;;;;;5057697;28;20201;-92
2021/05/02 05:30:41;;;;;;;30.52;27.88;;;;;;;;;;5075506;28;20554;-92
2021/05/02 05:33:10;;;;;;;30.70;28.10;;;;;;;;;;5057529;28;20210;-93
2021/05/02 05:35:37;;;;;;;32.10;29.30;;;;;;;;;;5075537;28;20200;-91
2021/05/02 05:38:05;;;;;;;30.92;27.95;;;;;;;;;;5074939;28;20257;-92
2021/05/02 05:40:32;;;;;;;31.63;28.63;;;;;;;;;;5074744;28;20228;-91
2021/05/02 05:43:02;;;;;;;29.88;27.48;;;;;;;;;;5075077;28;20466;-92
2021/05/02 05:45:29;;;;;;;29.90;27.58;;;;;;;;;;5074880;28;20263;-92
2021/05/02 05:47:56;;;;;;;29.85;27.45;;;;;;;;;;5074866;28;20200;-92
2021/05/02 05:50:24;;;;;;;29.52;26.92;;;;;;;;;;5075226;28;20540;-92
2021/05/02 05:52:51;;;;;;;33.33;30.15;;;;;;;;;;5074792;28;20194;-92
2021/05/02 05:55:19;;;;;;;31.10;28.33;;;;;;;;;;5074926;28;20207;-92
2021/05/02 05:57:46;;;;;;;31.17;28.65;;;;;;;;;;5074928;28;20654;-91
2021/05/02 06:00:15;;;;;;;31.80;28.75;;;;;;;;;;5074451;28;20201;-91
2021/05/02 06:02:42;;;;;;;31.08;28.20;;;;;;;;;;5074358;28;20660;-92
2021/05/02 06:05:10;;;;;;;29.60;27.40;;;;;;;;;;5074495;28;20682;-94
2021/05/02 06:07:37;;;;;;;28.55;26.35;;;;;;;;;;5073409;28;20224;-92
2021/05/02 06:10:04;;;;;;;31.48;28.63;;;;;;;;;;5073115;28;20600;-92
2021/05/02 06:12:31;;;;;;;31.55;29.15;;;;;;;;;;5074329;28;20191;-93
2021/05/02 06:14:57;;;;;;;29.92;27.52;;;;;;;;;;5074331;28;20194;-84
2021/05/02 06:17:25;;;;;;;31.83;29.05;;;;;;;;;;5074822;28;20586;-96
2021/05/02 06:19:53;;;;;;;30.08;27.73;;;;;;;;;;5074369;28;20204;-92
2021/05/02 06:22:20;;;;;;;26.77;24.33;;;;;;;;;;5056875;28;20704;-89
2021/05/02 06:24:47;;;;;;;29.98;27.45;;;;;;;;;;5074718;28;20194;-92
2021/05/02 06:27:14;;;;;;;30.37;28.07;;;;;;;;;;5074212;28;20189;-95
2021/05/02 06:29:41;;;;;;;27.95;25.75;;;;;;;;;;5074560;28;20501;-91
2021/05/02 06:32:08;;;;;;;28.10;25.77;;;;;;;;;;5074186;28;20201;-94
2021/05/02 06:34:35;;;;;;;28.63;26.40;;;;;;;;;;5074439;28;20213;-91
2021/05/02 06:37:02;;;;;;;26.88;24.83;;;;;;;;;;5056545;28;20703;-91
2021/05/02 06:39:30;;;;;;;30.15;27.17;;;;;;;;;;5056450;28;20253;-92
2021/05/02 06:41:56;;;;;;;28.17;26.23;;;;;;;;;;5073875;28;20699;-91
2021/05/02 06:44:24;;;;;;;29.00;26.70;;;;;;;;;;5076524;28;20201;-93
2021/05/02 06:46:53;;;;;;;26.60;24.65;;;;;;;;;;5047544;28;20198;-92
2021/05/02 06:49:20;;;;;;;27.47;24.90;;;;;;;;;;5072013;28;20209;-89
2021/05/02 06:51:49;;;;;;;24.15;22.55;;;;;;;;;;5091713;28;20451;-89
2021/05/02 06:54:17;;;;;;;27.15;25.10;;;;;;;;;;5083068;28;20686;-89
2021/05/02 06:56:44;;;;;;;28.85;26.65;;;;;;;;;;5086317;28;20696;-90
2021/05/02 06:59:11;;;;;;;28.05;25.52;;;;;;;;;;5080678;28;20633;-90
2021/05/02 07:01:39;;;;;;;27.60;25.40;;;;;;;;;;5076731;28;20678;-90
2021/05/02 07:04:06;;;;;;;24.40;22.60;;;;;;;;;;5092939;28;20440;-89
2021/05/02 07:06:33;;;;;;;26.63;24.55;;;;;;;;;;5075886;28;20541;-89
2021/05/02 07:09:02;;;;;;;25.83;23.95;;;;;;;;;;5093302;28;20285;-90
2021/05/02 07:11:29;;;;;;;28.25;25.65;;;;;;;;;;5064441;28;20217;-89
2021/05/02 07:13:56;;;;;;;24.48;22.73;;;;;;;;;;5092817;28;20255;-90
2021/05/02 07:16:23;;;;;;;25.92;23.83;;;;;;;;;;5082081;28;20187;-88
2021/05/02 07:18:50;;;;;;;25.90;24.00;;;;;;;;;;5073472;28;20215;-90
2021/05/02 07:21:19;;;;;;;27.33;25.13;;;;;;;;;;5078179;28;20265;-89
2021/05/02 07:23:47;;;;;;;27.08;25.15;;;;;;;;;;5073466;28;20551;-88
2021/05/02 07:26:15;;;;;;;26.60;24.75;;;;;;;;;;5070793;28;20239;-89
2021/05/02 07:28:42;;;;;;;27.02;25.02;;;;;;;;;;5073400;28;20203;-92
2021/05/02 07:31:10;;;;;;;24.47;22.90;;;;;;;;;;5066556;28;20206;-85
2021/05/02 07:33:41;;;;;;;24.95;22.85;;;;;;;;;;5075948;28;20467;-91
2021/05/02 07:36:08;;;;;;;28.67;26.37;;;;;;;;;;5078486;28;20206;-92
2021/05/02 07:38:36;;;;;;;27.70;25.77;;;;;;;;;;5077033;28;20575;-92
2021/05/02 07:41:04;;;;;;;27.92;25.92;;;;;;;;;;5061463;28;20880;-92
2021/05/02 07:43:33;;;;;;;25.90;23.97;;;;;;;;;;5077339;28;20223;-92
2021/05/02 07:46:00;;;;;;;26.30;24.20;;;;;;;;;;5077756;28;21015;-92
2021/05/02 07:48:27;;;;;;;26.93;24.60;;;;;;;;;;5080475;28;20456;-91
2021/05/02 07:50:54;;;;;;;27.23;25.23;;;;;;;;;;5077301;28;20771;-93
2021/05/02 07:53:20;;;;;;;26.63;24.73;;;;;;;;;;5077411;28;20440;-93
2021/05/02 07:55:47;;;;;;;24.80;22.90;;;;;;;;;;5077101;28;20452;-92
2021/05/02 07:58:14;;;;;;;25.20;23.50;;;;;;;;;;5076865;28;20640;-92
2021/05/02 08:00:42;;;;;;;26.00;24.08;;;;;;;;;;5076809;28;20634;-91
2021/05/02 08:03:09;;;;;;;25.50;23.50;;;;;;;;;;5076655;28;20221;-90
2021/05/02 08:05:36;;;;;;;24.60;23.00;;;;;;;;;;5076939;28;20190;-86
2021/05/02 08:08:03;;;;;;;25.88;24.08;;;;;;;;;;5077864;28;20242;-88
2021/05/02 08:10:30;;;;;;;25.95;23.90;;;;;;;;;;5078012;28;20195;-84
2021/05/02 08:12:58;;;;;;;23.30;21.67;;;;;;;;;;5086034;28;20364;-85
2021/05/02 08:15:25;;;;;;;26.10;23.85;;;;;;;;;;5087383;28;20189;-87
2021/05/02 08:17:53;;;;;;;24.55;22.85;;;;;;;;;;5078845;28;20539;-84
2021/05/02 08:20:20;;;;;;;27.33;25.15;;;;;;;;;;5041417;28;20200;-87
2021/05/02 08:22:47;;;;;;;26.15;23.83;;;;;;;;;;5084924;28;20219;-86
2021/05/02 08:25:14;;;;;;;24.95;23.35;;;;;;;;;;5087307;28;20634;-88
2021/05/02 08:27:43;;;;;;;25.20;23.27;;;;;;;;;;5076195;28;20296;-86
2021/05/02 08:30:10;;;;;;;24.33;22.30;;;;;;;;;;5089988;28;20415;-87
2021/05/02 08:32:37;;;;;;;25.60;23.03;;;;;;;;;;5084486;28;20629;-86
2021/05/02 08:35:06;;;;;;;23.77;22.00;;;;;;;;;;5087454;28;20407;-86
2021/05/02 08:37:33;;;;;;;23.42;21.67;;;;;;;;;;5067475;28;20241;-85
2021/05/02 08:40:00;;;;;;;23.67;22.27;;;;;;;;;;5076066;28;20562;-88
2021/05/02 08:42:27;;;;;;;23.17;21.63;;;;;;;;;;5075752;28;20211;-79
2021/05/02 08:44:53;;;;;;;22.37;21.10;;;;;;;;;;5075258;28;20430;-88
2021/05/02 08:47:21;;;;;;;24.20;22.30;;;;;;;;;;5076190;28;20484;-84
2021/05/02 08:49:48;;;;;;;22.40;20.93;;;;;;;;;;5075572;28;20487;-85
2021/05/02 08:52:15;;;;;;;22.43;21.10;;;;;;;;;;5075851;28;20511;-86
2021/05/02 08:54:43;;;;;;;22.77;21.43;;;;;;;;;;5075464;28;20935;-86
2021/05/02 08:57:10;;;;;;;23.40;21.88;;;;;;;;;;5076066;28;20454;-86
2021/05/02 08:59:37;;;;;;;23.50;22.00;;;;;;;;;;5074557;28;20193;-87
2021/05/02 09:02:05;;;;;;;22.73;21.43;;;;;;;;;;5075372;28;20222;-85
2021/05/02 09:04:32;;;;;;;22.15;20.83;;;;;;;;;;5075535;28;20415;-84
2021/05/02 09:06:59;;;;;;;22.97;21.03;;;;;;;;;;5074684;28;20580;-87
2021/05/02 09:09:27;;;;;;;24.17;22.30;;;;;;;;;;5075411;28;20483;-81
2021/05/02 09:11:54;;;;;;;21.77;20.47;;;;;;;;;;5075466;28;20500;-78
2021/05/02 09:14:27;;;;;;;23.23;21.63;;;;;;;;;;5075181;28;20431;-82
2021/05/02 09:16:55;;;;;;;22.73;21.33;;;;;;;;;;5076380;28;20408;-92
2021/05/02 09:19:22;;;;;;;21.93;20.43;;;;;;;;;;5075348;28;20412;-86
2021/05/02 09:21:50;;;;;;;21.30;20.00;;;;;;;;;;5075989;28;20424;-96
2021/05/02 09:24:24;;;;;;;22.20;20.70;;;;;;;;;;5077361;28;20456;-91
2021/05/02 09:27:05;;;;;;;23.07;21.57;;;;;;;;;;5076604;28;20498;-86
2021/05/02 09:29:33;;;;;;;23.00;21.50;;;;;;;;;;5075495;28;20416;-89
2021/05/02 09:32:00;;;;;;;23.03;21.53;;;;;;;;;;5074637;28;20909;-83
2021/05/02 09:34:27;;;;;;;23.80;22.20;;;;;;;;;;5074698;28;20432;-79
2021/05/02 09:36:56;;;;;;;22.90;21.10;;;;;;;;;;5074587;28;20477;-83
2021/05/02 09:39:39;;;;;;;24.23;22.60;;;;;;;;;;5075244;28;20780;-82
2021/05/02 09:42:08;;;;;;;22.80;21.40;;;;;;;;;;5074602;28;20985;-81
2021/05/02 09:44:38;;;;;;;22.43;20.97;;;;;;;;;;5074945;28;20498;-81
2021/05/02 09:47:20;;;;;;;22.33;20.87;;;;;;;;;;5074881;28;20421;-83
2021/05/02 09:50:02;;;;;;;22.53;21.23;;;;;;;;;;5075764;28;20433;-86
2021/05/02 09:52:40;;;;;;;23.13;21.73;;;;;;;;;;5075613;28;20453;-87
2021/05/02 09:55:18;;;;;;;22.80;21.40;;;;;;;;;;5073269;28;20937;-79
2021/05/02 09:57:52;;;;;;;23.90;22.10;;;;;;;;;;5074702;28;20441;-79
2021/05/02 10:00:26;;;;;;;23.43;21.97;;;;;;;;;;5074270;28;20441;-82
2021/05/02 10:02:54;;;;;;;23.10;21.90;;;;;;;;;;5074108;28;20459;-83
2021/05/02 10:05:21;;;;;;;23.47;22.00;;;;;;;;;;5073077;28;20420;-79
2021/05/02 10:07:48;;;;;;;22.03;20.83;;;;;;;;;;5074134;28;20802;-84
2021/05/02 10:10:15;;;;;;;22.27;20.97;;;;;;;;;;5074127;28;20459;-81
2021/05/02 10:12:42;;;;;;;22.63;21.10;;;;;;;;;;5073935;28;20412;-80
2021/05/02 10:15:11;;;;;;;22.43;21.07;;;;;;;;;;5074175;28;20194;-80
2021/05/02 10:17:37;;;;;;;21.17;19.97;;;;;;;;;;5075623;28;20548;-80
2021/05/02 10:20:05;;;;;;;22.13;20.73;;;;;;;;;;5074037;28;20450;-78
2021/05/02 10:22:32;;;;;;;21.63;20.43;;;;;;;;;;5073698;28;20539;-78
2021/05/02 10:24:59;;;;;;;24.00;22.33;;;;;;;;;;5073604;28;20637;-78
2021/05/02 10:27:26;;;;;;;24.00;22.40;;;;;;;;;;5073551;28;20437;-78
2021/05/02 10:29:58;;;;;;;23.60;22.27;;;;;;;;;;5072268;28;20802;-78
2021/05/02 10:32:33;;;;;;;24.07;22.30;;;;;;;;;;5073463;28;20926;-78
2021/05/02 10:35:06;;;;;;;23.73;22.17;;;;;;;;;;5073858;28;20441;-77
2021/05/02 10:37:35;;;;;;;23.80;22.30;;;;;;;;;;5073471;28;21021;-78
2021/05/02 10:40:06;;;;;;;23.70;22.40;;;;;;;;;;5073425;28;20814;-78
2021/05/02 10:42:36;;;;;;;21.73;20.63;;;;;;;;;;5073658;28;20495;-77
2021/05/02 10:45:18;;;;;;;23.10;21.70;;;;;;;;;;5073452;28;20458;-78
2021/05/02 10:47:46;;;;;;;22.03;20.53;;;;;;;;;;5073354;28;20446;-79
2021/05/02 10:50:25;;;;;;;22.33;21.13;;;;;;;;;;5079625;28;20416;-79
2021/05/02 10:53:02;;;;;;;23.23;21.73;;;;;;;;;;5079727;28;20416;-78
2021/05/02 10:55:43;;;;;;;22.63;21.43;;;;;;;;;;5081777;28;20458;-78
2021/05/02 10:58:18;;;;;;;23.47;22.00;;;;;;;;;;5079225;28;20436;-78
2021/05/02 11:00:48;;;;;;;23.80;22.40;;;;;;;;;;5064245;28;20420;-78
2021/05/02 11:03:30;;;;;;;22.57;21.07;;;;;;;;;;5083087;28;20450;-78
2021/05/02 11:05:58;;;;;;;22.07;20.83;;;;;;;;;;5068448;28;20436;-78
2021/05/02 11:08:40;;;;;;;21.73;20.50;;;;;;;;;;5085707;28;20412;-78
2021/05/02 11:11:07;;;;;;;22.67;21.10;;;;;;;;;;5084823;28;20427;-78
2021/05/02 11:13:34;;;;;;;22.50;21.20;;;;;;;;;;5087022;28;20423;-78
2021/05/02 11:16:16;;;;;;;23.67;22.27;;;;;;;;;;5087220;28;20449;-78
2021/05/02 11:18:51;;;;;;;22.20;21.00;;;;;;;;;;5085685;28;20469;-77
2021/05/02 11:21:19;;;;;;;22.33;21.03;;;;;;;;;;5080805;28;20469;-78
2021/05/02 11:23:54;;;;;;;22.80;21.40;;;;;;;;;;5076768;28;20452;-78
2021/05/02 11:26:36;;;;;;;21.93;20.83;;;;;;;;;;5084843;28;20403;-79
2021/05/02 11:29:13;;;;;;;23.33;22.03;;;;;;;;;;5082980;28;20469;-79
2021/05/02 11:31:41;;;;;;;21.90;20.70;;;;;;;;;;5079310;28;20962;-80
2021/05/02 11:34:08;;;;;;;21.30;20.23;;;;;;;;;;5076557;28;20419;-78
2021/05/02 11:36:39;;;;;;;21.63;20.40;;;;;;;;;;5077107;28;20448;-78
2021/05/02 11:39:06;;;;;;;21.83;20.73;;;;;;;;;;5076467;28;20459;-79
2021/05/02 11:42:01;;;;;;;22.23;21.03;;;;;;;;;;5076758;28;20494;-78
2021/05/02 11:44:28;;;;;;;22.33;21.00;;;;;;;;;;5076535;28;20420;-78
2021/05/02 11:46:56;;;;;;;21.50;20.40;;;;;;;;;;5076894;28;20408;-78
2021/05/02 11:49:22;;;;;;;22.10;20.70;;;;;;;;;;5076389;28;20416;-79
2021/05/02 11:51:57;;;;;;;21.33;20.13;;;;;;;;;;5076365;28;20881;-78
2021/05/02 11:54:24;;;;;;;22.10;20.77;;;;;;;;;;5076768;28;20493;-78
2021/05/02 11:56:51;;;;;;;23.00;21.83;;;;;;;;;;5076299;28;20412;-78
2021/05/02 11:59:18;;;;;;;22.90;21.60;;;;;;;;;;5076514;28;20420;-79
2021/05/02 12:01:47;;;;;;;22.20;21.00;;;;;;;;;;5076392;28;20499;-78
2021/05/02 12:04:17;;;;;;;22.70;21.30;;;;;;;;;;5076540;28;20412;-78
2021/05/02 12:06:45;;;;;;;22.90;21.70;;;;;;;;;;5076465;28;20770;-78
2021/05/02 12:09:13;;;;;;;22.00;20.90;;;;;;;;;;5076405;28;20447;-78
2021/05/02 12:11:41;;;;;;;21.73;20.63;;;;;;;;;;5077156;28;20766;-79
2021/05/02 12:14:09;;;;;;;22.50;21.20;;;;;;;;;;5075944;28;20921;-78
2021/05/02 12:16:36;;;;;;;21.47;20.47;;;;;;;;;;5075337;28;20442;-79
2021/05/02 12:19:04;;;;;;;21.43;20.30;;;;;;;;;;5075728;28;20432;-78
2021/05/02 12:21:32;;;;;;;21.50;20.40;;;;;;;;;;5075819;28;20830;-78
2021/05/02 12:24:20;;;;;;;22.23;20.93;;;;;;;;;;5075823;28;20982;-79
2021/05/02 12:26:48;;;;;;;22.10;20.80;;;;;;;;;;5069960;28;20428;-79
2021/05/02 12:29:18;;;;;;;22.60;21.40;;;;;;;;;;5075696;28;20436;-79
2021/05/02 12:31:50;;;;;;;22.87;21.67;;;;;;;;;;5075883;28;20412;-79
2021/05/02 12:34:18;;;;;;;23.57;22.37;;;;;;;;;;5075937;28;20441;-79
2021/05/02 12:36:44;;;;;;;23.20;21.90;;;;;;;;;;5075515;28;20446;-80
2021/05/02 12:39:13;;;;;;;23.10;21.80;;;;;;;;;;5075492;28;20460;-80
2021/05/02 12:41:41;;;;;;;22.23;20.93;;;;;;;;;;5064409;28;20443;-79
2021/05/02 12:44:13;;;;;;;22.93;21.73;;;;;;;;;;5089614;28;20481;-79
2021/05/02 12:46:41;;;;;;;20.70;19.60;;;;;;;;;;5084085;28;20438;-80
2021/05/02 12:49:09;;;;;;;22.63;21.13;;;;;;;;;;5086628;28;20892;-80
2021/05/02 12:51:37;;;;;;;21.47;20.37;;;;;;;;;;5084483;28;20440;-80
2021/05/02 12:54:07;;;;;;;22.07;20.67;;;;;;;;;;5082674;28;20488;-79
2021/05/02 12:56:34;;;;;;;23.50;22.13;;;;;;;;;;5075394;28;20442;-78
2021/05/02 12:59:02;;;;;;;23.67;22.40;;;;;;;;;;5075268;28;20419;-79
2021/05/02 13:01:30;;;;;;;22.60;21.20;;;;;;;;;;5075400;28;20438;-79
2021/05/02 13:03:58;;;;;;;23.07;21.77;;;;;;;;;;5075321;28;20464;-80
2021/05/02 13:06:26;;;;;;;23.50;22.00;;;;;;;;;;5075503;28;20454;-79
2021/05/02 13:08:54;;;;;;;22.83;21.53;;;;;;;;;;5069395;28;20467;-80
2021/05/02 13:11:28;;;;;;;22.83;21.33;;;;;;;;;;5074202;28;20444;-80
2021/05/02 13:14:13;;;;;;;22.17;20.87;;;;;;;;;;5075648;28;20501;-79
2021/05/02 13:16:42;;;;;;;21.03;19.93;;;;;;;;;;5074940;28;20452;-77
2021/05/02 13:19:20;;;;;;;22.70;21.30;;;;;;;;;;5074929;28;20423;-78
2021/05/02 13:21:47;;;;;;;21.90;20.70;;;;;;;;;;5040051;28;20420;-78
2021/05/02 13:24:14;;;;;;;22.63;21.10;;;;;;;;;;5074671;28;20447;-79
2021/05/02 13:26:42;;;;;;;22.70;21.40;;;;;;;;;;5073160;28;20416;-78
2021/05/02 13:29:11;;;;;;;22.80;21.53;;;;;;;;;;5073845;28;20767;-78
2021/05/02 13:31:39;;;;;;;22.40;21.10;;;;;;;;;;5074838;28;20446;-78
2021/05/02 13:34:07;;;;;;;21.90;20.80;;;;;;;;;;5075392;28;20776;-78
2021/05/02 13:36:34;;;;;;;22.07;20.87;;;;;;;;;;5075000;28;20486;-79
2021/05/02 13:39:01;;;;;;;23.07;21.67;;;;;;;;;;5074118;28;20452;-80
2021/05/02 13:41:29;;;;;;;23.47;22.10;;;;;;;;;;5074233;28;20476;-80
2021/05/02 13:44:03;;;;;;;23.00;21.53;;;;;;;;;;5074553;28;20452;-80
2021/05/02 13:46:30;;;;;;;22.67;21.47;;;;;;;;;;5083892;28;20480;-80
2021/05/02 13:48:57;;;;;;;22.40;20.90;;;;;;;;;;5083004;28;20404;-80
2021/05/02 13:51:25;;;;;;;22.97;21.57;;;;;;;;;;5082916;28;20409;-80
2021/05/02 13:53:52;;;;;;;21.40;20.30;;;;;;;;;;5082533;28;20886;-81
2021/05/02 13:56:19;;;;;;;23.40;22.07;;;;;;;;;;5087983;28;20548;-80
2021/05/02 13:58:46;;;;;;;22.10;21.00;;;;;;;;;;5086068;28;20456;-80
2021/05/02 14:01:13;;;;;;;22.90;21.60;;;;;;;;;;5083025;28;20401;-79
2021/05/02 14:03:41;;;;;;;22.43;21.23;;;;;;;;;;5083197;28;20451;-80
2021/05/02 14:06:08;;;;;;;22.30;21.10;;;;;;;;;;5084694;28;20429;-80
2021/05/02 14:08:36;;;;;;;21.93;20.63;;;;;;;;;;5083293;28;20420;-80
2021/05/02 14:11:03;;;;;;;21.83;20.73;;;;;;;;;;5081994;28;20507;-79
2021/05/02 14:13:30;;;;;;;22.57;21.27;;;;;;;;;;5080065;28;20420;-80
2021/05/02 14:15:57;;;;;;;23.33;22.13;;;;;;;;;;5085372;28;20465;-80
2021/05/02 14:18:24;;;;;;;24.00;22.33;;;;;;;;;;5076950;28;20408;-81
2021/05/02 14:20:51;;;;;;;22.17;20.87;;;;;;;;;;5074303;28;20411;-81
2021/05/02 14:23:18;;;;;;;22.57;21.30;;;;;;;;;;5074009;28;20520;-80
2021/05/02 14:25:48;;;;;;;22.40;21.20;;;;;;;;;;5073956;28;20524;-80